Station: Tocal  

  Atmospheric Gas Attenuation - ITU Rec 676-11   ----------------- dB/100km -----------------
Date Time Temp RH % AH g/m3 Dew Point Wind Direction Speed kph Gust kph Barometer mB Rainfall Since 9am 24GHz 47GHz 76GHz 122GHz 134GHz 241GHz
08/05 12:30 18.6 34 5.41 2.4 24 39 1013.1 0 12.6 20.0 26.2 68.2 55.3 188.0
08/05 12:20 18.7 35 5.6 2.9 26 33 1013.1 0 13.0 20.2 26.8 69.8 57.4 195.1
08/05 12:10 18.5 34 5.38 2.4 30 37 1013.1 0 12.6 20.0 26.1 68.0 55.1 187.1
08/05 12:00 18.7 35 5.6 2.9 24 37 1013.1 0 13.0 20.2 26.8 69.8 57.4 195.1
08/05 11:50 18 38 5.84 3.5 28 37 1013.1 0 13.6 20.7 27.8 72.5 60.5 206.2
08/05 11:40 17.6 37 5.55 2.8 22 30 1013.1 0 13.0 20.4 27.0 70.3 57.6 195.8
08/05 11:30 18.3 38 5.94 3.8 22 37 1013.1 0 13.8 20.8 28.1 73.2 61.4 209.4
08/05 11:20 17.9 37 5.65 3 24 32 1013.1 0 13.2 20.4 27.2 70.9 58.5 199.0
08/05 11:10 17.3 39 5.75 3.2 13 22 1013.1 0 13.4 20.7 27.8 72.3 60.0 204.4
08/05 11:00 17.7 38 5.73 3.2 19 30 1013.1 0 13.3 20.6 27.6 71.8 59.5 202.6
08/05 10:50 16.6 40 5.65 3 17 19 1013.1 0 13.2 20.7 27.7 72.0 59.4 202.2
08/05 10:40 16.9 38 5.47 2.5 11 15 1013.1 0 12.8 20.4 26.9 70.1 57.2 194.3
08/05 10:30 16.6 40 5.65 3 20 32 1013.1 0 13.2 20.7 27.7 72.0 59.4 202.2
08/05 10:20 17.5 40 5.96 3.8 19 26 1013.1 0 13.8 21.0 28.4 74.1 62.3 212.3
08/05 10:10 16.2 41 5.65 2.9 20 26 1013.1 0 13.2 20.8 27.8 72.4 59.7 203.2
08/05 10:00 15.7 42 5.62 2.8 19 32 1013.1 0 13.2 20.9 27.9 72.6 59.8 203.2
08/05 09:50 15.4 44 5.78 3.2 20 30 1013.1 0 13.5 21.2 28.5 74.3 61.8 210.4
08/05 09:40 14.9 43 5.48 2.4 13 17 1013.1 0 12.9 20.9 27.6 72.0 58.7 199.5
08/05 09:30 14.2 45 5.5 2.5 20 35 1013.1 0 13.0 21.1 27.9 72.8 59.5 202.1
08/05 09:20 13.7 45 5.33 2 19 35 1013.1 0 12.6 20.9 27.5 71.6 57.9 196.3
08/05 09:10 13.8 44 5.24 1.8 13 17 1013.1 0 12.4 20.8 27.2 70.7 56.7 192.4
08/05 09:00 14.1 43 5.22 1.7 17 30 1013.1 0 12.4 20.7 27.0 70.2 56.3 190.9
08/05 08:50 13.9 44 5.28 1.9 15 20 1013.1 0 12.5 20.8 27.3 71.0 57.1 193.8
08/05 08:40 13.6 46 5.41 2.2 15 19 1013.1 0 12.8 21.1 27.8 72.5 58.9 199.8
08/05 08:30 13 46 5.22 1.7 20 30 1013.1 0 12.4 20.9 27.4 71.2 57.1 193.5
08/05 08:20 12.9 48 5.41 2.2 15 19 1013.1 0 12.8 21.2 28.1 73.1 59.4 201.6
08/05 08:10 12.4 48 5.25 1.7 22 28 1013.1 0 12.5 21.1 27.7 72.0 57.9 196.2
08/05 08:00 12 49 5.22 1.6 22 35 1013.1 0 12.5 21.2 27.7 72.1 57.8 195.9
08/05 07:50 11.8 49 5.16 1.4 19 26 1013.1 0 12.3 21.1 27.5 71.7 57.2 193.9
08/05 07:40 11.4 50 5.13 1.4 28 37 1013.1 0 12.3 21.2 27.6 71.8 57.2 193.6
08/05 07:30 11 50 5.01 1 17 32 1013.1 0 12.1 21.1 27.3 71.0 56.0 189.5
08/05 07:20 10.9 51 5.07 1.2 19 26 1013.1 0 12.2 21.2 27.5 71.6 56.8 192.3
08/05 07:10 10.5 52 5.04 1.1 20 32 1013.1 0 12.1 21.2 27.6 71.7 56.7 191.9
08/05 07:00 10.3 53 5.08 1.2 17 30 1013.1 0 12.2 21.4 27.8 72.3 57.4 194.1
08/05 06:50 9.9 55 5.14 1.3 20 26 1013.1 0 12.4 21.5 28.1 73.2 58.4 197.6
08/05 06:40 9.4 55 4.98 0.8 17 24 1013.1 0 12.0 21.4 27.7 72.1 56.8 192.0
08/05 06:30 9.5 54 4.92 0.7 19 30 1013.1 0 11.9 21.3 27.5 71.4 56.0 189.2
08/05 06:20 9.6 54 4.95 0.8 22 28 1013.1 0 12.0 21.3 27.5 71.6 56.3 190.3
08/05 06:10 9.7 54 4.98 0.9 17 20 1013.1 0 12.0 21.3 27.6 71.8 56.6 191.3
08/05 06:00 9.6 54 4.95 0.8 15 28 1013.1 0 12.0 21.3 27.5 71.6 56.3 190.3
08/05 05:50 9.6 54 4.95 0.8 13 15 1013.1 0 12.0 21.3 27.5 71.6 56.3 190.3
08/05 05:40 9.7 53 4.89 0.6 17 28 1013.1 0 11.8 21.2 27.3 70.9 55.5 187.5
08/05 05:30 9.9 53 4.95 0.8 15 26 1013.1 0 12.0 21.3 27.4 71.4 56.1 189.6
08/05 05:20 9.6 53 4.86 0.5 15 19 1013.1 0 11.8 21.2 27.2 70.7 55.2 186.5
08/05 05:10 9.7 53 4.89 0.6 17 28 1013.1 0 11.8 21.2 27.3 70.9 55.5 187.5
08/05 05:00 9.6 53 4.86 0.5 15 30 1013.1 0 11.8 21.2 27.2 70.7 55.2 186.5
08/05 04:50 9.5 53 4.83 0.4 20 28 1013.1 0 11.7 21.2 27.1 70.5 54.9 185.4
08/05 04:40 9.6 52 4.76 0.2 9 11 1013.1 0 11.6 21.0 26.8 69.8 54.0 182.2
08/05 04:30 9.6 52 4.76 0.2 13 20 1013.1 0 11.6 21.0 26.8 69.8 54.0 182.2
08/05 04:20 9.3 52 4.67 0 17 19 1013.1 0 11.4 21.0 26.6 69.2 53.1 179.1
08/05 04:10 9.4 52 4.7 0.1 13 17 1013.1 0 11.4 21.0 26.7 69.4 53.4 180.2
08/05 04:00 9.3 52 4.67 0 13 22 1013.1 0 11.4 21.0 26.6 69.2 53.1 179.1
08/05 03:50 9.6 50 4.58 -0.3 7 9 1013.1 0 11.2 20.8 26.2 68.0 51.9 174.7
08/05 03:40 9.4 51 4.61 -0.2 9 11 1013.1 0 11.3 20.9 26.4 68.5 52.3 176.4
08/05 03:30 9.3 50 4.49 -0.6 11 17 1013.1 0 11.0 20.7 26.0 67.4 51.0 171.6
08/05 03:20 9.6 49 4.49 -0.6 11 13 1013.1 0 11.0 20.7 25.9 67.2 50.8 170.9
08/05 03:10 9.5 50 4.55 -0.4 9 13 1013.1 0 11.1 20.8 26.1 67.8 51.6 173.6
08/05 03:00 9.8 49 4.55 -0.4 11 15 1013.1 0 11.1 20.7 26.0 67.6 51.4 173.0
08/05 02:50 9.7 49 4.52 -0.5 13 15 1013.1 0 11.1 20.7 25.9 67.4 51.1 172.0
08/05 02:40 9.9 48 4.48 -0.6 11 15 1013.1 0 11.0 20.6 25.7 66.8 50.5 169.9
08/05 02:30 9.9 47 4.39 -0.9 13 22 1013.1 0 10.8 20.4 25.4 66.0 49.4 166.2
08/05 02:20 10 47 4.42 -0.8 11 13 1013.1 0 10.8 20.5 25.5 66.2 49.7 167.2
08/05 02:10 10 47 4.42 -0.8 15 19 1013.1 0 10.8 20.5 25.5 66.2 49.7 167.2
08/05 02:00 10 46 4.32 -1.1 11 15 1013.1 0 10.6 20.3 25.1 65.2 48.5 163.1
08/05 01:50 10.1 46 4.35 -1 9 11 1013.1 0 10.7 20.3 25.2 65.4 48.8 164.1
08/05 01:40 10 46 4.32 -1.1 11 15 1013.1 0 10.6 20.3 25.1 65.2 48.5 163.1
08/05 01:30 10.2 45 4.28 -1.2 11 17 1013.1 0 10.5 20.2 24.9 64.7 48.0 161.0
08/05 01:20 10.4 44 4.24 -1.3 11 13 1013.1 0 10.4 20.1 24.7 64.2 47.4 159.0
08/05 01:10 10.4 45 4.34 -1 13 17 1013.1 0 10.6 20.3 25.1 65.1 48.5 163.1
08/05 01:00 10.2 45 4.28 -1.2 13 26 1013.1 0 10.5 20.2 24.9 64.7 48.0 161.0
08/05 00:50 10.3 44 4.21 -1.4 15 17 1013.1 0 10.4 20.1 24.7 63.9 47.1 158.0
08/05 00:40 10.5 44 4.27 -1.2 13 17 1013.1 0 10.5 20.1 24.8 64.4 47.7 160.0
08/05 00:20 10.5 44 4.27 -1.2 11 13 1013.1 0 10.5 20.1 24.8 64.4 47.7 160.0
08/05 00:10 10.6 43 4.2 -1.4 11 15 1013.1 0 10.3 20.0 24.5 63.6 46.8 157.0
08/05 00:00 10.5 43 4.17 -1.5 13 19 1013.1 0 10.3 20.0 24.5 63.4 46.5 156.0
07/05 23:50 10.6 43 4.2 -1.4 13 17 1013.1 0 10.3 20.0 24.5 63.6 46.8 157.0
07/05 23:40 10.4 43 4.15 -1.6 11 13 1013.1 0 10.2 20.0 24.4 63.3 46.3 155.3
07/05 23:30 10.6 43 4.2 -1.4 13 22 1013.1 0 10.3 20.0 24.5 63.6 46.8 157.0
07/05 23:20 10.6 43 4.2 -1.4 17 20 1013.1 0 10.3 20.0 24.5 63.6 46.8 157.0
07/05 23:10 10.7 42 4.13 -1.7 11 13 1013.1 0 10.2 19.9 24.3 62.9 45.9 154.0
07/05 23:00 10.8 41 4.05 -1.9 15 28 1013.1 0 10.0 19.8 24.0 62.1 45.0 150.5
07/05 22:50 10.7 42 4.13 -1.7 17 19 1013.1 0 10.2 19.9 24.3 62.9 45.9 154.0
07/05 22:40 10.9 41 4.08 -1.8 17 19 1013.1 0 10.1 19.8 24.0 62.3 45.2 151.6
07/05 22:30 11.1 41 4.13 -1.6 17 26 1013.1 0 10.2 19.8 24.1 62.6 45.7 153.2
07/05 22:20 10.9 41 4.08 -1.8 19 24 1013.1 0 10.1 19.8 24.0 62.3 45.2 151.6
07/05 22:10 10.9 40 3.98 -2.1 19 22 1013.1 0 9.9 19.6 23.7 61.3 44.1 147.5
07/05 22:00 11.5 38 3.93 -2.3 15 26 1013.1 0 9.7 19.5 23.3 60.4 43.2 144.5
07/05 21:50 11.8 37 3.89 -2.4 20 32 1013.1 0 9.7 19.3 23.1 59.9 42.6 142.4
07/05 21:40 12 36 3.84 -2.6 15 17 1013.1 0 9.5 19.2 22.9 59.3 41.9 140.1
07/05 21:30 12.1 36 3.86 -2.5 24 41 1013.1 0 9.6 19.2 22.9 59.4 42.1 140.7
07/05 21:20 12.4 35 3.82 -2.6 20 28 1013.1 0 9.5 19.1 22.7 58.8 41.5 138.6
07/05 21:10 12.3 35 3.8 -2.7 19 24 1013.1 0 9.5 19.1 22.7 58.7 41.3 138.0
07/05 21:00 12.1 35 3.75 -2.9 15 24 1013.1 0 9.4 19.1 22.6 58.4 40.9 136.4
07/05 20:50 12.3 34 3.69 -3.1 13 15 1013.1 0 9.2 19.0 22.3 57.7 40.1 133.7
07/05 20:40 12.4 34 3.72 -3 17 19 1013.1 0 9.3 19.0 22.4 57.9 40.4 134.7
07/05 20:30 12.3 34 3.69 -3.1 17 32 1013.1 0 9.2 19.0 22.3 57.7 40.1 133.7
07/05 20:20 12.5 33 3.63 -3.3 17 20 1013.1 0 9.1 18.8 22.1 57.0 39.4 131.1
07/05 20:10 12.5 34 3.74 -2.9 17 20 1013.1 0 9.3 19.0 22.4 58.0 40.6 135.3
07/05 20:00 12.5 33 3.63 -3.3 17 32 1013.1 0 9.1 18.8 22.1 57.0 39.4 131.1
07/05 19:50 12.8 32 3.58 -3.5 15 19 1013.1 0 9.0 18.7 21.8 56.4 38.7 128.7

Last Refresh: 08-May-2026 12:08:30

Bureau of Meteorology